ADDS METAR Data INFO
IDs: Format: Raw Decoded Include TAF

Data at: 0205 UTC 20 Sep 2017

KLAR 200202Z AUTO 26007KT 10SM SCT030 BKN036 OVC048 03/00 A2998 RMK AO2 RAE0159 P0000 T00330000
KLAR 200153Z AUTO 28012KT 10SM -RA FEW025 BKN029 OVC048 03/00 A2998 RMK AO2 RAB31 SLP090 P0000 T00330000
KLAR 200053Z AUTO 30015KT 10SM FEW040 OVC060 06/M03 A2995 RMK AO2 SLP076 T00611033
KLAR 192353Z AUTO 33012KT 10SM OVC055 07/M03 A2992 RMK AO2 PK WND 32029/2331 SLP061 T00671033 10222 20067 53033
KLAR 192253Z AUTO 32025KT 10SM SCT055 OVC110 08/M03 A2989 RMK AO2 PK WND 30036/2201 SLP050 T00781033
KLAR 192153Z AUTO 31027G35KT 10SM CLR 11/M02 A2984 RMK AO2 PK WND 31039/2138 SLP026 T01061022
KLAR 192053Z AUTO 32030G38KT 10SM CLR 12/00 A2980 RMK AO2 PK WND 31040/2014 SLP005 T01170000 53013
KLAR 191953Z AUTO 31026G31KT 10SM BKN100 15/01 A2978 RMK AO2 PK WND 23042/1858 WSHFT 1918 SLP988 T01500011
KLAR 191938Z AUTO 34019G31KT 10SM BKN100 16/02 A2978 RMK AO2 PK WND 23042/1858 WSHFT 1918 T01560017
KLAR 191853Z AUTO 25022G39KT 10SM FEW100 22/M06 A2976 RMK AO2 PK WND 24040/1830 SLP970 T02171056
KLAR 191753Z AUTO 24019G30KT 10SM CLR 21/M06 A2976 RMK AO2 PK WND 23039/1702 SLP966 T02111061 10211 20106 56010
KLAR 191653Z AUTO 24030G37KT 10SM CLR 20/M07 A2976 RMK AO2 PK WND 24037/1653 SLP970 T02001072
KLAR 191553Z AUTO 23016G27KT 10SM CLR 19/M08 A2978 RMK AO2 PK WND 22028/1537 SLP982 T01891078
KLAR 191453Z AUTO 18013G18KT 10SM CLR 16/M08 A2979 RMK AO2 SLP990 T01611078 58007
KLAR 191353Z AUTO 19007KT 10SM CLR 13/M07 A2981 RMK AO2 SLP997 T01331072
KLAR 191253Z AUTO 13008KT 10SM CLR 11/M07 A2982 RMK AO2 SLP000 T01111067
KLAR 191153Z AUTO 20008KT 10SM CLR 13/M07 A2982 RMK AO2 SLP988 T01281067 10133 20089 55008
KLAR 191053Z AUTO 15010KT 10SM CLR 11/M07 A2981 RMK AO2 SLP989 T01111067
KLAR 190953Z AUTO 15009KT 10SM CLR 10/M07 A2982 RMK AO2 SLP994 T01001072
KLAR 190853Z AUTO 19012KT 10SM CLR 12/M07 A2985 RMK AO2 SLP996 T01221072 58016
KLAR 190753Z AUTO 19013KT 10SM CLR 13/M06 A2987 RMK AO2 SLP008 T01281056
KLAR 190653Z AUTO 17012KT 10SM CLR 11/M04 A2989 RMK AO2 SLP020 T01061039 402280028
KLAR 190553Z AUTO 19012KT 10SM CLR 12/M03 A2991 RMK AO2 SLP024 T01171028 10206 20106 56022
KLAR 190453Z AUTO 16010KT 10SM CLR 12/M02 A2993 RMK AO2 SLP039 T01171022
KLAR 190353Z AUTO 15009KT 10SM CLR 11/M02 A2996 RMK AO2 SLP055 T01111017
KLAR 190253Z AUTO 16010KT 10SM CLR 12/M02 A2999 RMK AO2 SLP074 T01221017 58001
KLAR 190153Z AUTO 16011KT 10SM CLR 15/M03 A2999 RMK AO2 SLP082 T01501028
KLAR 190053Z AUTO 23010KT 10SM CLR 17/M04 A2999 RMK AO2 SLP082 T01721039
KLAR 182353Z AUTO 22009KT 10SM SCT100 21/M04 A2999 RMK AO2 SLP069 T02061044 10228 20189 58014
KLAR 182253Z AUTO 21008G19KT 10SM CLR 21/M04 A3001 RMK AO2 SLP075 T02061039
KLAR 182153Z AUTO 25016G22KT 10SM CLR 21/M04 A3003 RMK AO2 PK WND 24026/2114 SLP077 T02111039
KLAR 182053Z AUTO 22012G22KT 190V270 10SM BKN095 22/M06 A3004 RMK AO2 SLP078 T02171056 56021
KLAR 181953Z AUTO 24011G22KT 10SM FEW090 21/M04 A3006 RMK AO2 WSHFT 1915 SLP088 T02061044
KLAR 181935Z AUTO 26011G24KT 10SM SCT090 21/M03 A3007 RMK AO2 WSHFT 1915 T02111028
KLAR 181853Z AUTO 25009G18KT 10SM CLR 20/M03 A3009 RMK AO2 SLP102 T02001033
KLAR 181753Z AUTO 25016G25KT 10SM FEW080 19/M03 A3012 RMK AO2 SLP112 T01941028 10194 20028 58007
KLAR 181653Z AUTO 23008G16KT 190V250 10SM CLR 17/M01 A3014 RMK AO2 SLP119 T01721011
KLAR 181553Z AUTO 21015KT 10SM CLR 16/00 A3015 RMK AO2 SLP123 T01560000
KLAR 181453Z AUTO 19010KT 10SM CLR 11/02 A3015 RMK AO2 SLP136 T01110017 51005